Tybee Island, Georgia
Current Conditions -  °F | °C
As of 12:50 PM on Sunday 25 Jan 2015 (Local Time) from KHXD Reporting Station
Clear Clear  
Wind Chill: 52°   Ceiling: Unl
Heat Index: 52°   Visibility: 10mi
Dew Point: 39°   Wind: 8mph
Humidity: 62%   Direction: 170°S
Pressure: 29.99"   Gusts: NA
Location:  32°N, 80.85°W
Report Text: KHXD 251750Z 17007KT 10SM SKC 11/04 A2999
Loading
Personal Weather Stations






























Interactive Weather Map New forecast layout! Learn more

10-Day Weather Forecast

Advertisements
Track Severe Weather on mobile